»·PEaware :: UAL465 KSFO-KSMF

UAL465 :: KSFO-KSMF

FLIGHT INFORMATION

Flight Status: Arrived
Operator:
United Airlines
More flights by this operator :: More flights under this callsign
Pilot: Sergei F. (8485)
Aircraft: BOEING 737-200
(B732)
More flights by this aircraft type
Origin: KSFO San Francisco Intl
United States
Destination: KSMF Sacramento Intl
United States
More flights between these airports :: More routes between these airports
Route: +SFO4 CCR CCR2
File this flight plan on PilotEdge
Remarks:
Altitude:
(Current/Filed)
11,000ft
Speed:
(Current/Filed)
250kts
Departed: 28-Sep-18 06:15 PM
Arrived: 28-Sep-18 06:45 PM
Distance/Time
Traveled:
74nm/0:30
Distance/Time
To Go:
Arrived

Flight Plot

Page will automatically refresh every two minutes.

Flight plan parsing failed; only flown route is shown


Map Options




Map Legend


Flown Route
Filed Route
Departure Airport
Arrival Airport
Navaid (VOR, NDB)
Fix

Horizontal Profiles

Position Reports

Time Latitude Longitude Heading Altitude Ground
Speed
28-Sep-18 17:55 37.616771 -122.380593 299 18ft 0kts
28-Sep-18 17:56 37.616771 -122.380593 299 18ft 0kts
28-Sep-18 17:57 37.616771 -122.380593 299 18ft 0kts
28-Sep-18 17:58 37.616771 -122.380593 299 18ft 0kts
28-Sep-18 17:59 37.616771 -122.380593 299 18ft 0kts
28-Sep-18 18:00 37.616771 -122.380593 299 18ft 0kts
28-Sep-18 18:01 37.616771 -122.380593 299 18ft 0kts
28-Sep-18 18:02 37.616771 -122.380593 299 18ft 0kts
28-Sep-18 18:03 37.616771 -122.380593 299 18ft 0kts
28-Sep-18 18:04 37.616771 -122.380592 299 18ft 0kts
28-Sep-18 18:05 37.616771 -122.380592 299 18ft 0kts
28-Sep-18 18:06 37.616771 -122.380592 299 18ft 0kts
28-Sep-18 18:07 37.616557 -122.380120 299 18ft 2kts
28-Sep-18 18:08 37.616740 -122.379582 195 18ft 1kts
28-Sep-18 18:09 37.616774 -122.379569 199 18ft 0kts
28-Sep-18 18:10 37.616774 -122.379569 199 18ft 0kts
28-Sep-18 18:11 37.615692 -122.380254 209 18ft 10kts
28-Sep-18 18:12 37.612948 -122.382070 207 18ft 11kts
28-Sep-18 18:13 37.610265 -122.383873 211 18ft 6kts
28-Sep-18 18:14 37.608784 -122.384578 126 18ft 6kts
28-Sep-18 18:15 37.608474 -122.383882 118 18ft 0kts
28-Sep-18 18:16 37.608237 -122.382713 29 18ft 0kts
28-Sep-18 18:17 37.619702 -122.375105 27 19ft 159kts
28-Sep-18 18:18 37.657462 -122.329127 46 2412ft 199kts
28-Sep-18 18:19 37.696589 -122.274028 46 4776ft 250kts
28-Sep-18 18:20 37.749370 -122.206419 30 7891ft 283kts
28-Sep-18 18:21 37.823724 -122.163854 24 9996ft 310kts
28-Sep-18 18:22 37.901382 -122.122149 24 9984ft 299kts
28-Sep-18 18:23 37.975813 -122.082224 24 10073ft 286kts
28-Sep-18 18:24 38.047974 -122.043379 24 10074ft 279kts
28-Sep-18 18:25 38.109178 -121.989547 44 10063ft 270kts
28-Sep-18 18:26 38.165464 -121.929691 39 10040ft 267kts
28-Sep-18 18:27 38.224276 -121.873312 40 10014ft 263kts
28-Sep-18 18:28 38.283640 -121.816099 40 9551ft 273kts
28-Sep-18 18:29 38.343774 -121.758452 33 8375ft 269kts
28-Sep-18 18:30 38.412886 -121.728092 10 7288ft 263kts
28-Sep-18 18:31 38.484008 -121.711910 10 6189ft 259kts
28-Sep-18 18:32 38.554094 -121.696124 10 5121ft 253kts
28-Sep-18 18:33 38.622415 -121.678964 11 3891ft 246kts
28-Sep-18 18:34 38.685522 -121.663479 11 3010ft 228kts
28-Sep-18 18:35 38.745618 -121.656374 0 2850ft 211kts
28-Sep-18 18:36 38.796580 -121.648440 54 1834ft 175kts
28-Sep-18 18:37 38.794125 -121.596946 123 986ft 138kts
28-Sep-18 18:38 38.761327 -121.595155 201 1021ft 128kts
28-Sep-18 18:39 38.724703 -121.600855 178 449ft 133kts
28-Sep-18 18:40 38.689402 -121.601446 181 222ft 123kts
28-Sep-18 18:41 38.657426 -121.621024 269 1390ft 184kts
28-Sep-18 18:42 38.704622 -121.644982 359 1440ft 203kts
28-Sep-18 18:43 38.759878 -121.647795 355 1287ft 190kts
28-Sep-18 18:44 38.796339 -121.623271 114 1121ft 169kts
28-Sep-18 18:45 38.757772 -121.601395 169 967ft 141kts
28-Sep-18 18:46 38.719516 -121.600894 180 289ft 135kts
28-Sep-18 18:47 38.693893 -121.601295 180 31ft 29kts
28-Sep-18 18:48 38.690576 -121.599792 90 31ft 9kts
28-Sep-18 18:49 38.692345 -121.598707 359 31ft 10kts
28-Sep-18 18:50 38.694634 -121.598111 85 31ft 7kts
28-Sep-18 18:51 38.694777 -121.596087 37 31ft 3kts
28-Sep-18 18:52 38.695516 -121.595835 64 31ft 3kts
28-Sep-18 18:53 38.695479 -121.595281 98 31ft 0kts
28-Sep-18 18:54 38.695478 -121.595267 98 31ft 0kts

Navigation Log

Ident Type
Flight plan parsing failed, navigation log unavailable